AFR68 LFPG-KPHX
Flight info
| Callsign | AFR68 |
|---|---|
| Flight time | N/A |
| Altitude | 30000 |
| Route | ATREX DCT VESAN DCT RATUK DCT SOVAT/N0485F360 DCT LESTA UP6 RODOL UM65 TENSO L603 BELOX DCT GOTNA DCT APSOV DCT SUNOT/M085F380 DCT 58N020W 58N030W 58N040W 57N050W DCT HOIST/N0497F380 DCT ELINU/N0491F400 DCT YMT DCT SSM J101 GRB DCT MCW DCT EAR DCT LAA J102 GUP EAGUL6 |
| Aircraft | A359/H-SDE2E3GHIJ3J4J5LM1ORWXY/LB1D1 |
Departure
| Time | N/A |
|---|---|
| Airport | Charles de Gaulle International Airport (LFPG) |
Arrival
| Time | 2026-05-05 19:22 |
|---|---|
| Airport | Phoenix Sky Harbor International Airport (KPHX) |
| Time | Latitude | Longitude | Altitude | Speed | Heading |
|---|---|---|---|---|---|
| 2026-05-05 19:10 | 33.82705 | -111.43764 | 16013 ft | 321 kts | 201° |
| 2026-05-05 19:10 | 33.80570 | -111.44633 | 15123 ft | 323 kts | 200° |
| 2026-05-05 19:10 | 33.78420 | -111.45483 | 13849 ft | 328 kts | 199° |
| 2026-05-05 19:11 | 33.76191 | -111.46354 | 12794 ft | 345 kts | 199° |
| 2026-05-05 19:11 | 33.73890 | -111.47250 | 12058 ft | 347 kts | 199° |
| 2026-05-05 19:11 | 33.71620 | -111.48127 | 10824 ft | 341 kts | 198° |
| 2026-05-05 19:11 | 33.69380 | -111.48987 | 10234 ft | 332 kts | 198° |
| 2026-05-05 19:12 | 33.67234 | -111.49813 | 10087 ft | 315 kts | 198° |
| 2026-05-05 19:12 | 33.65207 | -111.50597 | 9962 ft | 298 kts | 198° |
| 2026-05-05 19:12 | 33.63283 | -111.51341 | 9833 ft | 283 kts | 198° |
| 2026-05-05 19:12 | 33.61449 | -111.52048 | 9696 ft | 270 kts | 198° |
| 2026-05-05 19:13 | 33.59696 | -111.52725 | 9556 ft | 263 kts | 198° |
| 2026-05-05 19:13 | 33.57951 | -111.53422 | 9405 ft | 265 kts | 200° |
| 2026-05-05 19:13 | 33.56217 | -111.54164 | 9146 ft | 265 kts | 200° |
| 2026-05-05 19:13 | 33.54511 | -111.54898 | 8887 ft | 262 kts | 200° |
| 2026-05-05 19:14 | 33.52788 | -111.55635 | 8650 ft | 262 kts | 200° |
| 2026-05-05 19:14 | 33.51091 | -111.56358 | 8488 ft | 260 kts | 200° |
| 2026-05-05 19:14 | 33.49379 | -111.57085 | 8186 ft | 261 kts | 200° |
| 2026-05-05 19:14 | 33.47665 | -111.57811 | 7860 ft | 262 kts | 200° |
| 2026-05-05 19:15 | 33.46010 | -111.58690 | 7501 ft | 260 kts | 212° |
| 2026-05-05 19:15 | 33.44730 | -111.60194 | 7168 ft | 259 kts | 240° |
| 2026-05-05 19:15 | 33.44125 | -111.62223 | 6834 ft | 261 kts | 256° |
| 2026-05-05 19:15 | 33.43940 | -111.64392 | 6460 ft | 263 kts | 266° |
| 2026-05-05 19:16 | 33.43956 | -111.66581 | 6135 ft | 262 kts | 269° |
| 2026-05-05 19:16 | 33.43983 | -111.68759 | 5941 ft | 261 kts | 269° |
| 2026-05-05 19:16 | 33.44050 | -111.70927 | 5700 ft | 257 kts | 270° |
| 2026-05-05 19:16 | 33.44074 | -111.73044 | 5384 ft | 252 kts | 267° |
| 2026-05-05 19:17 | 33.44056 | -111.75101 | 5074 ft | 248 kts | 267° |
| 2026-05-05 19:17 | 33.44053 | -111.77161 | 4729 ft | 244 kts | 268° |
| 2026-05-05 19:17 | 33.44063 | -111.79132 | 4393 ft | 229 kts | 267° |
| 2026-05-05 19:17 | 33.44064 | -111.80983 | 4090 ft | 217 kts | 268° |
| 2026-05-05 19:18 | 33.44066 | -111.82741 | 3810 ft | 205 kts | 267° |
| 2026-05-05 19:18 | 33.44058 | -111.84367 | 3740 ft | 185 kts | 265° |
| 2026-05-05 19:18 | 33.44052 | -111.85851 | 3453 ft | 174 kts | 268° |
| 2026-05-05 19:18 | 33.44066 | -111.87290 | 3097 ft | 170 kts | 266° |
| 2026-05-05 19:19 | 33.44068 | -111.88633 | 2857 ft | 157 kts | 266° |
| 2026-05-05 19:19 | 33.44071 | -111.89894 | 2663 ft | 145 kts | 268° |
| 2026-05-05 19:19 | 33.44073 | -111.91087 | 2480 ft | 143 kts | 268° |
| 2026-05-05 19:19 | 33.44076 | -111.92249 | 2299 ft | 134 kts | 266° |
| 2026-05-05 19:20 | 33.44078 | -111.93326 | 2138 ft | 128 kts | 266° |
| 2026-05-05 19:20 | 33.44076 | -111.94390 | 1976 ft | 127 kts | 267° |
| 2026-05-05 19:20 | 33.44077 | -111.95455 | 1796 ft | 126 kts | 268° |
| 2026-05-05 19:20 | 33.44077 | -111.96515 | 1635 ft | 129 kts | 269° |
| 2026-05-05 19:21 | 33.44080 | -111.97600 | 1459 ft | 131 kts | 268° |
| 2026-05-05 19:21 | 33.44087 | -111.98683 | 1268 ft | 129 kts | 271° |
| 2026-05-05 19:21 | 33.44084 | -111.99739 | 1145 ft | 124 kts | 269° |
| 2026-05-05 19:21 | 33.44084 | -112.00612 | 1135 ft | 83 kts | 270° |
| 2026-05-05 19:22 | 33.44086 | -112.01101 | 1137 ft | 35 kts | 270° |
| 2026-05-05 19:22 | 33.44081 | -112.01269 | 1141 ft | 13 kts | 259° |
| 2026-05-05 19:22 | 33.44030 | -112.01359 | 1140 ft | 13 kts | 201° |
| 2026-05-05 19:22 | 33.43976 | -112.01299 | 1137 ft | 13 kts | 100° |
| 2026-05-05 19:23 | 33.43974 | -112.01180 | 1136 ft | 16 kts | 90° |
| 2026-05-05 19:23 | 33.43974 | -112.01035 | 1135 ft | 19 kts | 90° |
| 2026-05-05 19:23 | 33.43973 | -112.00860 | 1135 ft | 23 kts | 90° |
| 2026-05-05 19:23 | 33.43974 | -112.00665 | 1136 ft | 25 kts | 90° |
| 2026-05-05 19:24 | 33.43974 | -112.00445 | 1135 ft | 28 kts | 90° |
| 2026-05-05 19:24 | 33.43974 | -112.00205 | 1136 ft | 30 kts | 90° |
| 2026-05-05 19:24 | 33.43974 | -111.99958 | 1136 ft | 29 kts | 90° |
| 2026-05-05 19:24 | 33.43973 | -111.99732 | 1137 ft | 22 kts | 90° |
| 2026-05-05 19:25 | 33.43972 | -111.99598 | 1137 ft | 11 kts | 101° |
| 2026-05-05 19:25 | 33.43912 | -111.99524 | 1138 ft | 14 kts | 113° |
| 2026-05-05 19:25 | 33.43904 | -111.99401 | 1132 ft | 11 kts | 90° |
| 2026-05-05 19:25 | 33.43894 | -111.99334 | 1133 ft | 9 kts | 120° |
| 2026-05-05 19:26 | 33.43846 | -111.99330 | 1134 ft | 6 kts | 211° |
| 2026-05-05 19:26 | 33.43823 | -111.99358 | 1136 ft | 3 kts | 231° |
| 2026-05-05 19:26 | 33.43820 | -111.99362 | 1137 ft | 0 kts | 232° |